Terminal Aerodrome Forecast
Issued by NWS Cleveland, OH

Home | Current Version | Previous Version | Graphics & Text | Print | Product List | Glossary On
Versions: 1 2 3 4 5 6 7 8 9 10 11 12 13 14 15 16 17
000
FTUS41 KCLE 142300 RRA
TAFCAK
TAF
KCAK 142345Z 1500/1524 25012KT P6SM SCT020 OVC040
      TEMPO 1500/1504 3SM -RA BR SCT012 OVC020
     FM150400 33008KT 3SM -RA BKN006 OVC012
      TEMPO 1504/1506 2SM RA BR OVC006
     FM150600 35008KT 2SM RA BR OVC006
     FM151000 33012G20KT 1SM -SN BR OVC006
     FM151400 33015G25KT 3SM -SN BR BKN015 OVC025
     FM151500 33015G25KT P6SM BKN025 OVC035
     FM152000 33015G25KT P6SM BKN035=

USA.gov is the U.S. government's official web portal to all federal, state and local government web resources and services.